Portada
METAR-TAF:

METAR-TAF

Aeroports :

Siirt, Turquia

latitud: 37-58-41N, longitud: 41-50-21E, altitud: 610 m

Observació

L'informe es va fer fa 5 hores i 40 minuts, a les 12:50 UTC
Vent 3 kt del Sud, variant entre Sud-Est i Sud/Sud-Oest
Temperatura 14°C
Humitat 55%
Pressió 1019 hPa
Visibilitat 10 km o més
Escasses núvols a una alçada de 4000 ft
Núvols disperses a una alçada de 10000 ft

METAR: LTCL 061250Z 17003KT 130V200 9999 FEW040 SCT100 14/05 Q1019

Hora: 21:30 (18:30 UTC)

Pronòstic

L'informe es va fer fa 4 hores i 50 minuts, a les 13:40 UTC
Pronòstic vàlid del 06 a les 15 UTC al 06 a les 24 UTC
Vent 2 kt amb direcció variable
Visibilitat 10 km o més
Escasses núvols a una alçada de 4000 ft
Núvols disperses a una alçada de 10000 ft

TAF: LTCL 061340Z 0615/0624 VRB02KT 9999 FEW040 SCT100

Observacions i pronòstics meteorològics de més de 4000 aeroports (METAR i TAF).

Les estacions disponibles són els punts grocs i vermells al mapa.

Posi el ratolí al punt desitjat per veure el nom de l'estació.

Feu clic per veure les observacions i els pronòstics meteorològics.

Per canviar el mapa: feu clic els botons verds amb una creu de color negre per apropar; al botó verd amb un guió per allunyar la imatge; o en les fletxes verdes per a mapes adjacents.


METAR-TAF: